sensor_id;sensor_type;location;lat;lon;timestamp;pressure;altitude;pressure_sealevel;temperature;humidity
32243;BME280;18731;42.830;24.390;2024-02-26T00:00:29;93986.03;;;11.13;64.83
32243;BME280;18731;42.830;24.390;2024-02-26T00:02:55;93989.75;;;11.24;64.30
32243;BME280;18731;42.830;24.390;2024-02-26T00:05:21;94025.63;;;11.54;62.47
32243;BME280;18731;42.830;24.390;2024-02-26T00:07:47;94010.81;;;11.57;62.82
32243;BME280;18731;42.830;24.390;2024-02-26T00:10:13;94016.41;;;11.52;62.96
32243;BME280;18731;42.830;24.390;2024-02-26T00:12:39;94006.50;;;11.68;61.43
32243;BME280;18731;42.830;24.390;2024-02-26T00:15:08;94014.59;;;11.72;61.46
32243;BME280;18731;42.830;24.390;2024-02-26T00:17:34;94008.13;;;11.73;61.26
32243;BME280;18731;42.830;24.390;2024-02-26T00:20:01;94016.56;;;11.75;61.21
32243;BME280;18731;42.830;24.390;2024-02-26T00:22:30;94003.22;;;11.75;61.65
32243;BME280;18731;42.830;24.390;2024-02-26T00:24:55;94006.78;;;11.79;61.65
32243;BME280;18731;42.830;24.390;2024-02-26T00:27:21;93983.47;;;11.64;61.48
32243;BME280;18731;42.830;24.390;2024-02-26T00:29:46;94003.91;;;11.87;62.05
32243;BME280;18731;42.830;24.390;2024-02-26T00:32:12;94012.28;;;11.86;61.71
32243;BME280;18731;42.830;24.390;2024-02-26T00:34:37;94020.47;;;11.93;61.77
32243;BME280;18731;42.830;24.390;2024-02-26T00:37:03;94017.09;;;11.96;62.05
32243;BME280;18731;42.830;24.390;2024-02-26T00:39:28;94015.47;;;11.91;61.90
32243;BME280;18731;42.830;24.390;2024-02-26T00:41:54;94017.88;;;11.97;62.19
32243;BME280;18731;42.830;24.390;2024-02-26T00:44:19;93997.34;;;12.01;62.37
32243;BME280;18731;42.830;24.390;2024-02-26T00:46:45;94016.06;;;12.01;62.22
32243;BME280;18731;42.830;24.390;2024-02-26T00:49:10;93990.38;;;11.80;62.53
32243;BME280;18731;42.830;24.390;2024-02-26T00:51:36;94010.72;;;11.85;63.81
32243;BME280;18731;42.830;24.390;2024-02-26T00:54:02;93977.25;;;11.59;63.44
32243;BME280;18731;42.830;24.390;2024-02-26T00:56:27;94011.31;;;11.63;64.38
32243;BME280;18731;42.830;24.390;2024-02-26T00:58:53;94005.88;;;11.59;64.43
32243;BME280;18731;42.830;24.390;2024-02-26T01:01:18;94008.47;;;11.55;65.02
32243;BME280;18731;42.830;24.390;2024-02-26T01:03:44;94004.50;;;11.49;65.29
32243;BME280;18731;42.830;24.390;2024-02-26T01:06:09;94007.00;;;11.42;64.37
32243;BME280;18731;42.830;24.390;2024-02-26T01:08:35;94001.41;;;11.47;63.29
32243;BME280;18731;42.830;24.390;2024-02-26T01:11:01;94004.69;;;11.56;64.06
32243;BME280;18731;42.830;24.390;2024-02-26T01:13:26;93987.78;;;11.52;63.21
32243;BME280;18731;42.830;24.390;2024-02-26T01:15:52;93999.25;;;11.69;63.05
32243;BME280;18731;42.830;24.390;2024-02-26T01:18:17;94005.72;;;11.68;63.27
32243;BME280;18731;42.830;24.390;2024-02-26T01:20:43;93999.16;;;11.65;63.45
32243;BME280;18731;42.830;24.390;2024-02-26T01:23:08;94000.47;;;11.55;64.18
32243;BME280;18731;42.830;24.390;2024-02-26T01:25:34;94001.56;;;11.54;62.25
32243;BME280;18731;42.830;24.390;2024-02-26T01:27:59;93982.78;;;11.35;58.92
32243;BME280;18731;42.830;24.390;2024-02-26T01:30:25;94004.94;;;11.67;57.30
32243;BME280;18731;42.830;24.390;2024-02-26T01:32:50;94013.03;;;11.71;58.50
32243;BME280;18731;42.830;24.390;2024-02-26T01:35:16;94011.22;;;11.75;52.84
32243;BME280;18731;42.830;24.390;2024-02-26T01:37:42;93994.69;;;11.85;51.94
32243;BME280;18731;42.830;24.390;2024-02-26T01:40:08;94009.06;;;11.96;52.88
32243;BME280;18731;42.830;24.390;2024-02-26T01:42:34;93990.63;;;11.91;51.34
32243;BME280;18731;42.830;24.390;2024-02-26T01:45:00;94006.38;;;12.12;51.28
32243;BME280;18731;42.830;24.390;2024-02-26T01:47:26;94011.22;;;12.06;52.01
32243;BME280;18731;42.830;24.390;2024-02-26T01:49:53;94031.91;;;12.09;51.17
32243;BME280;18731;42.830;24.390;2024-02-26T01:52:19;94014.66;;;12.07;52.95
32243;BME280;18731;42.830;24.390;2024-02-26T01:54:45;94011.72;;;12.12;52.46
32243;BME280;18731;42.830;24.390;2024-02-26T01:57:12;94014.06;;;12.13;51.41
32243;BME280;18731;42.830;24.390;2024-02-26T01:59:39;94010.78;;;12.04;51.24
32243;BME280;18731;42.830;24.390;2024-02-26T02:02:07;94002.22;;;12.14;51.34
32243;BME280;18731;42.830;24.390;2024-02-26T02:04:35;94015.94;;;12.13;52.19
32243;BME280;18731;42.830;24.390;2024-02-26T02:07:02;94000.72;;;11.98;54.13
32243;BME280;18731;42.830;24.390;2024-02-26T02:09:28;94002.59;;;11.97;55.23
32243;BME280;18731;42.830;24.390;2024-02-26T02:11:54;94007.78;;;11.90;55.88
32243;BME280;18731;42.830;24.390;2024-02-26T02:14:20;94010.72;;;11.85;56.08
32243;BME280;18731;42.830;24.390;2024-02-26T02:16:47;94003.97;;;11.75;58.40
32243;BME280;18731;42.830;24.390;2024-02-26T02:19:13;94017.09;;;11.65;56.89
32243;BME280;18731;42.830;24.390;2024-02-26T02:21:39;93993.81;;;11.65;57.47
32243;BME280;18731;42.830;24.390;2024-02-26T02:24:04;94000.28;;;11.48;56.33
32243;BME280;18731;42.830;24.390;2024-02-26T02:26:30;93992.97;;;11.45;56.77
32243;BME280;18731;42.830;24.390;2024-02-26T02:28:57;93982.63;;;11.44;54.85
32243;BME280;18731;42.830;24.390;2024-02-26T02:31:23;93984.00;;;11.53;54.17
32243;BME280;18731;42.830;24.390;2024-02-26T02:33:49;93962.09;;;11.48;55.28
32243;BME280;18731;42.830;24.390;2024-02-26T02:36:14;93958.31;;;11.33;60.51
32243;BME280;18731;42.830;24.390;2024-02-26T02:38:48;93947.44;;;11.26;60.86
32243;BME280;18731;42.830;24.390;2024-02-26T02:41:15;93952.88;;;11.14;62.08
32243;BME280;18731;42.830;24.390;2024-02-26T02:43:41;93941.56;;;11.05;65.29
32243;BME280;18731;42.830;24.390;2024-02-26T02:46:06;93950.03;;;11.07;66.16
32243;BME280;18731;42.830;24.390;2024-02-26T02:48:32;93962.50;;;10.87;62.01
32243;BME280;18731;42.830;24.390;2024-02-26T02:50:57;93957.25;;;10.90;62.86
32243;BME280;18731;42.830;24.390;2024-02-26T02:53:23;93953.44;;;10.91;64.10
32243;BME280;18731;42.830;24.390;2024-02-26T02:55:48;93958.88;;;10.95;64.02
32243;BME280;18731;42.830;24.390;2024-02-26T02:58:14;93965.97;;;11.03;63.32
32243;BME280;18731;42.830;24.390;2024-02-26T03:00:40;93963.19;;;11.00;63.87
32243;BME280;18731;42.830;24.390;2024-02-26T03:03:05;93958.47;;;10.65;64.38
32243;BME280;18731;42.830;24.390;2024-02-26T03:05:31;93954.06;;;10.57;64.29
32243;BME280;18731;42.830;24.390;2024-02-26T03:07:57;93964.34;;;10.71;64.32
32243;BME280;18731;42.830;24.390;2024-02-26T03:10:22;93967.44;;;10.73;65.96
32243;BME280;18731;42.830;24.390;2024-02-26T03:12:49;93965.31;;;10.50;63.96
32243;BME280;18731;42.830;24.390;2024-02-26T03:15:15;93977.44;;;10.48;66.20
32243;BME280;18731;42.830;24.390;2024-02-26T03:17:40;93975.91;;;10.47;67.52
32243;BME280;18731;42.830;24.390;2024-02-26T03:20:06;93972.34;;;10.30;67.90
32243;BME280;18731;42.830;24.390;2024-02-26T03:22:33;93974.38;;;10.21;66.15
32243;BME280;18731;42.830;24.390;2024-02-26T03:24:59;93943.06;;;10.06;68.20
32243;BME280;18731;42.830;24.390;2024-02-26T03:27:24;93967.47;;;10.32;68.68
32243;BME280;18731;42.830;24.390;2024-02-26T03:29:50;93946.81;;;10.17;68.52
32243;BME280;18731;42.830;24.390;2024-02-26T03:32:16;93965.91;;;10.31;67.81
32243;BME280;18731;42.830;24.390;2024-02-26T03:34:41;93964.13;;;10.36;67.45
32243;BME280;18731;42.830;24.390;2024-02-26T03:37:07;93963.00;;;10.37;66.95
32243;BME280;18731;42.830;24.390;2024-02-26T03:39:35;93970.31;;;10.40;68.70
32243;BME280;18731;42.830;24.390;2024-02-26T03:42:00;93967.91;;;10.35;68.20
32243;BME280;18731;42.830;24.390;2024-02-26T03:44:26;93969.34;;;10.32;69.34
32243;BME280;18731;42.830;24.390;2024-02-26T03:46:51;93969.06;;;10.21;69.13
32243;BME280;18731;42.830;24.390;2024-02-26T03:49:17;93972.59;;;10.25;69.43
32243;BME280;18731;42.830;24.390;2024-02-26T03:51:43;93966.72;;;10.20;67.16
32243;BME280;18731;42.830;24.390;2024-02-26T03:54:08;93963.03;;;10.12;69.37
32243;BME280;18731;42.830;24.390;2024-02-26T03:56:34;93971.16;;;10.16;69.33
32243;BME280;18731;42.830;24.390;2024-02-26T03:58:59;93965.03;;;10.15;68.86
32243;BME280;18731;42.830;24.390;2024-02-26T04:01:27;93966.38;;;10.09;70.40
32243;BME280;18731;42.830;24.390;2024-02-26T04:03:52;93954.16;;;10.08;69.97
32243;BME280;18731;42.830;24.390;2024-02-26T04:06:18;93960.28;;;10.09;69.96
32243;BME280;18731;42.830;24.390;2024-02-26T04:08:46;93963.94;;;10.04;70.31
32243;BME280;18731;42.830;24.390;2024-02-26T04:11:12;93956.63;;;10.01;70.85
32243;BME280;18731;42.830;24.390;2024-02-26T04:13:37;93959.28;;;10.01;71.44
32243;BME280;18731;42.830;24.390;2024-02-26T04:16:06;93957.50;;;10.05;71.29
32243;BME280;18731;42.830;24.390;2024-02-26T04:18:32;93959.50;;;10.08;70.51
32243;BME280;18731;42.830;24.390;2024-02-26T04:20:58;93937.66;;;9.90;70.06
32243;BME280;18731;42.830;24.390;2024-02-26T04:23:24;93956.06;;;10.08;69.48
32243;BME280;18731;42.830;24.390;2024-02-26T04:25:50;93953.44;;;9.83;71.27
32243;BME280;18731;42.830;24.390;2024-02-26T04:28:16;93956.44;;;9.70;72.51
32243;BME280;18731;42.830;24.390;2024-02-26T04:30:41;93925.16;;;9.54;71.36
32243;BME280;18731;42.830;24.390;2024-02-26T04:33:07;93955.56;;;9.78;69.96
32243;BME280;18731;42.830;24.390;2024-02-26T04:35:33;93954.88;;;9.81;70.02
32243;BME280;18731;42.830;24.390;2024-02-26T04:38:00;93957.44;;;9.77;70.96
32243;BME280;18731;42.830;24.390;2024-02-26T04:40:26;93953.34;;;9.80;71.13
32243;BME280;18731;42.830;24.390;2024-02-26T04:42:51;93952.22;;;9.81;70.39
32243;BME280;18731;42.830;24.390;2024-02-26T04:45:17;93947.56;;;9.65;68.60
32243;BME280;18731;42.830;24.390;2024-02-26T04:47:42;93948.91;;;9.72;69.80
32243;BME280;18731;42.830;24.390;2024-02-26T04:50:08;93950.00;;;9.71;71.14
32243;BME280;18731;42.830;24.390;2024-02-26T04:52:34;93948.91;;;9.72;70.71
32243;BME280;18731;42.830;24.390;2024-02-26T04:54:59;93952.56;;;9.55;71.14
32243;BME280;18731;42.830;24.390;2024-02-26T04:57:25;93962.91;;;9.56;70.14
32243;BME280;18731;42.830;24.390;2024-02-26T04:59:51;93955.56;;;9.53;70.88
32243;BME280;18731;42.830;24.390;2024-02-26T05:02:17;93965.34;;;9.37;71.64
32243;BME280;18731;42.830;24.390;2024-02-26T05:04:43;93958.91;;;9.38;70.21
32243;BME280;18731;42.830;24.390;2024-02-26T05:07:08;93950.69;;;9.43;71.49
32243;BME280;18731;42.830;24.390;2024-02-26T05:09:34;93938.03;;;9.28;70.86
32243;BME280;18731;42.830;24.390;2024-02-26T05:12:00;93953.34;;;9.43;69.19
32243;BME280;18731;42.830;24.390;2024-02-26T05:14:26;93950.69;;;9.43;69.07
32243;BME280;18731;42.830;24.390;2024-02-26T05:16:51;93957.56;;;9.44;70.49
32243;BME280;18731;42.830;24.390;2024-02-26T05:19:17;93943.16;;;9.45;70.67
32243;BME280;18731;42.830;24.390;2024-02-26T05:21:42;93922.06;;;9.28;70.78
32243;BME280;18731;42.830;24.390;2024-02-26T05:24:09;93945.03;;;9.57;63.64
32243;BME280;18731;42.830;24.390;2024-02-26T05:26:35;93957.09;;;9.79;64.65
32243;BME280;18731;42.830;24.390;2024-02-26T05:29:00;93952.75;;;9.86;64.13
32243;BME280;18731;42.830;24.390;2024-02-26T05:31:27;93956.41;;;9.94;63.78
32243;BME280;18731;42.830;24.390;2024-02-26T05:33:52;93956.28;;;10.03;63.55
32243;BME280;18731;42.830;24.390;2024-02-26T05:36:21;93921.88;;;9.97;63.11
32243;BME280;18731;42.830;24.390;2024-02-26T05:38:48;93956.50;;;10.22;64.29
32243;BME280;18731;42.830;24.390;2024-02-26T05:41:15;93968.38;;;10.24;63.58
32243;BME280;18731;42.830;24.390;2024-02-26T05:43:41;93955.81;;;10.25;64.79
32243;BME280;18731;42.830;24.390;2024-02-26T05:46:07;93973.13;;;10.31;62.46
32243;BME280;18731;42.830;24.390;2024-02-26T05:48:33;93968.56;;;10.44;63.99
32243;BME280;18731;42.830;24.390;2024-02-26T05:50:59;93970.22;;;10.48;63.10
32243;BME280;18731;42.830;24.390;2024-02-26T05:53:24;93970.56;;;10.47;64.63
32243;BME280;18731;42.830;24.390;2024-02-26T05:55:50;93972.22;;;10.51;61.80
32243;BME280;18731;42.830;24.390;2024-02-26T05:58:16;93978.53;;;10.59;62.48
32243;BME280;18731;42.830;24.390;2024-02-26T06:00:41;93985.84;;;10.62;63.01
32243;BME280;18731;42.830;24.390;2024-02-26T06:03:07;93988.84;;;10.60;63.68
32243;BME280;18731;42.830;24.390;2024-02-26T06:05:32;93996.72;;;10.69;61.47
32243;BME280;18731;42.830;24.390;2024-02-26T06:07:58;93981.41;;;10.82;59.35
32243;BME280;18731;42.830;24.390;2024-02-26T06:10:23;93982.56;;;10.97;58.22
32243;BME280;18731;42.830;24.390;2024-02-26T06:12:49;93990.44;;;11.05;58.71
32243;BME280;18731;42.830;24.390;2024-02-26T06:15:14;93972.44;;;11.18;58.34
32243;BME280;18731;42.830;24.390;2024-02-26T06:17:40;93983.47;;;11.32;57.45
32243;BME280;18731;42.830;24.390;2024-02-26T06:20:06;93983.72;;;11.43;57.08
32243;BME280;18731;42.830;24.390;2024-02-26T06:22:36;93978.66;;;11.53;56.29
32243;BME280;18731;42.830;24.390;2024-02-26T06:25:02;93978.97;;;11.68;55.90
32243;BME280;18731;42.830;24.390;2024-02-26T06:27:28;93981.81;;;11.75;55.85
32243;BME280;18731;42.830;24.390;2024-02-26T06:29:53;93982.00;;;11.82;55.31
32243;BME280;18731;42.830;24.390;2024-02-26T06:32:19;93981.91;;;11.94;54.25
32243;BME280;18731;42.830;24.390;2024-02-26T06:34:44;93979.03;;;12.03;54.33
32243;BME280;18731;42.830;24.390;2024-02-26T06:37:10;93984.56;;;12.10;54.08
32243;BME280;18731;42.830;24.390;2024-02-26T06:39:35;93999.34;;;12.23;52.86
32243;BME280;18731;42.830;24.390;2024-02-26T06:42:01;93992.75;;;12.36;54.22
32243;BME280;18731;42.830;24.390;2024-02-26T06:44:29;93989.09;;;12.44;53.66
32243;BME280;18731;42.830;24.390;2024-02-26T06:46:58;93989.19;;;12.48;52.00
32243;BME280;18731;42.830;24.390;2024-02-26T06:49:24;94002.44;;;12.60;52.26
32243;BME280;18731;42.830;24.390;2024-02-26T06:51:50;94000.94;;;12.63;53.07
32243;BME280;18731;42.830;24.390;2024-02-26T06:54:15;93999.81;;;12.64;51.81
32243;BME280;18731;42.830;24.390;2024-02-26T06:56:41;94007.00;;;12.60;52.41
32243;BME280;18731;42.830;24.390;2024-02-26T06:59:06;94014.41;;;12.66;51.48
32243;BME280;18731;42.830;24.390;2024-02-26T07:01:32;94010.75;;;12.74;52.57
32243;BME280;18731;42.830;24.390;2024-02-26T07:03:57;94024.97;;;12.78;52.58
32243;BME280;18731;42.830;24.390;2024-02-26T07:06:23;94015.59;;;12.88;51.52
32243;BME280;18731;42.830;24.390;2024-02-26T07:08:48;94012.84;;;12.84;52.06
32243;BME280;18731;42.830;24.390;2024-02-26T07:11:14;94007.84;;;12.83;51.90
32243;BME280;18731;42.830;24.390;2024-02-26T07:13:39;94013.75;;;12.92;51.43
32243;BME280;18731;42.830;24.390;2024-02-26T07:16:05;94009.59;;;12.95;50.83
32243;BME280;18731;42.830;24.390;2024-02-26T07:18:31;94019.63;;;12.98;51.33
32243;BME280;18731;42.830;24.390;2024-02-26T07:20:56;93995.50;;;12.98;51.27
32243;BME280;18731;42.830;24.390;2024-02-26T07:23:22;93990.78;;;12.91;51.15
32243;BME280;18731;42.830;24.390;2024-02-26T07:25:47;94006.25;;;13.17;51.15
32243;BME280;18731;42.830;24.390;2024-02-26T07:28:15;94001.44;;;13.26;50.93
32243;BME280;18731;42.830;24.390;2024-02-26T07:30:40;94013.97;;;13.41;48.87
32243;BME280;18731;42.830;24.390;2024-02-26T07:33:06;94008.91;;;13.59;48.79
32243;BME280;18731;42.830;24.390;2024-02-26T07:35:32;94011.41;;;13.71;48.87
32243;BME280;18731;42.830;24.390;2024-02-26T07:37:58;93977.59;;;13.67;47.18
32243;BME280;18731;42.830;24.390;2024-02-26T07:40:24;94001.38;;;13.91;47.37
32243;BME280;18731;42.830;24.390;2024-02-26T07:42:49;94001.16;;;14.03;47.60
32243;BME280;18731;42.830;24.390;2024-02-26T07:45:15;94006.63;;;14.10;47.56
32243;BME280;18731;42.830;24.390;2024-02-26T07:47:40;94009.47;;;14.21;46.59
32243;BME280;18731;42.830;24.390;2024-02-26T07:50:08;93970.41;;;13.97;45.79
32243;BME280;18731;42.830;24.390;2024-02-26T07:52:34;94001.47;;;14.25;45.87
32243;BME280;18731;42.830;24.390;2024-02-26T07:54:59;94005.69;;;14.26;46.03
32243;BME280;18731;42.830;24.390;2024-02-26T07:57:25;93998.88;;;14.32;46.31
32243;BME280;18731;42.830;24.390;2024-02-26T07:59:50;94010.84;;;14.38;46.42
32243;BME280;18731;42.830;24.390;2024-02-26T08:02:16;93987.00;;;14.33;46.60
32243;BME280;18731;42.830;24.390;2024-02-26T08:04:42;94003.03;;;14.26;46.67
32243;BME280;18731;42.830;24.390;2024-02-26T08:07:07;94018.28;;;14.22;46.47
32243;BME280;18731;42.830;24.390;2024-02-26T08:09:33;94008.59;;;14.13;47.67
32243;BME280;18731;42.830;24.390;2024-02-26T08:11:59;93983.13;;;13.77;46.77
32243;BME280;18731;42.830;24.390;2024-02-26T08:14:24;94012.88;;;13.92;47.65
32243;BME280;18731;42.830;24.390;2024-02-26T08:16:49;94012.19;;;13.98;47.84
32243;BME280;18731;42.830;24.390;2024-02-26T08:19:15;94012.81;;;14.14;47.39
32243;BME280;18731;42.830;24.390;2024-02-26T08:21:41;94008.38;;;14.26;47.90
32243;BME280;18731;42.830;24.390;2024-02-26T08:24:07;93996.38;;;14.42;47.38
32243;BME280;18731;42.830;24.390;2024-02-26T08:26:32;93984.50;;;14.43;46.79
32243;BME280;18731;42.830;24.390;2024-02-26T08:28:58;94012.13;;;14.74;46.96
32243;BME280;18731;42.830;24.390;2024-02-26T08:31:23;94018.34;;;14.82;46.50
32243;BME280;18731;42.830;24.390;2024-02-26T08:33:49;94017.78;;;14.99;45.75
32243;BME280;18731;42.830;24.390;2024-02-26T08:36:15;94017.38;;;15.30;45.46
32243;BME280;18731;42.830;24.390;2024-02-26T08:38:41;94039.63;;;15.61;44.82
32243;BME280;18731;42.830;24.390;2024-02-26T08:41:06;94024.97;;;15.99;44.91
32243;BME280;18731;42.830;24.390;2024-02-26T08:43:32;94020.75;;;16.01;43.41
32243;BME280;18731;42.830;24.390;2024-02-26T08:45:57;94028.03;;;15.97;43.63
32243;BME280;18731;42.830;24.390;2024-02-26T08:48:26;94021.75;;;15.83;43.83
32243;BME280;18731;42.830;24.390;2024-02-26T08:50:52;94010.97;;;15.79;44.44
32243;BME280;18731;42.830;24.390;2024-02-26T08:53:18;94018.47;;;16.07;43.44
32243;BME280;18731;42.830;24.390;2024-02-26T08:55:47;94023.34;;;16.46;42.81
32243;BME280;18731;42.830;24.390;2024-02-26T08:58:12;93999.50;;;16.48;42.04
32243;BME280;18731;42.830;24.390;2024-02-26T09:00:38;93995.38;;;16.64;42.11
32243;BME280;18731;42.830;24.390;2024-02-26T09:03:03;93995.53;;;17.00;40.11
32243;BME280;18731;42.830;24.390;2024-02-26T09:05:30;94008.38;;;17.46;39.83
32243;BME280;18731;42.830;24.390;2024-02-26T09:07:55;93996.88;;;17.66;39.55
32243;BME280;18731;42.830;24.390;2024-02-26T09:10:21;93980.31;;;17.82;38.42
32243;BME280;18731;42.830;24.390;2024-02-26T09:12:47;93989.16;;;17.72;38.38
32243;BME280;18731;42.830;24.390;2024-02-26T09:15:13;93990.72;;;17.70;37.23
32243;BME280;18731;42.830;24.390;2024-02-26T09:17:38;93980.69;;;18.02;37.15
32243;BME280;18731;42.830;24.390;2024-02-26T09:20:04;93985.28;;;18.19;35.98
32243;BME280;18731;42.830;24.390;2024-02-26T09:22:31;93968.72;;;18.10;36.37
32243;BME280;18731;42.830;24.390;2024-02-26T09:24:56;93957.50;;;17.51;37.04
32243;BME280;18731;42.830;24.390;2024-02-26T09:27:22;93971.00;;;17.55;38.11
32243;BME280;18731;42.830;24.390;2024-02-26T09:29:48;93973.31;;;17.49;37.39
32243;BME280;18731;42.830;24.390;2024-02-26T09:32:14;93959.44;;;17.54;36.98
32243;BME280;18731;42.830;24.390;2024-02-26T09:34:40;93953.22;;;17.25;36.29
32243;BME280;18731;42.830;24.390;2024-02-26T09:37:06;93953.63;;;17.24;36.65
32243;BME280;18731;42.830;24.390;2024-02-26T09:39:32;93966.75;;;17.57;36.76
32243;BME280;18731;42.830;24.390;2024-02-26T09:41:57;93955.22;;;17.78;35.64
32243;BME280;18731;42.830;24.390;2024-02-26T09:44:25;93961.03;;;17.77;36.46
32243;BME280;18731;42.830;24.390;2024-02-26T09:46:52;93955.59;;;17.59;36.95
32243;BME280;18731;42.830;24.390;2024-02-26T09:49:21;93957.13;;;17.63;36.41
32243;BME280;18731;42.830;24.390;2024-02-26T09:51:49;93960.22;;;17.65;36.17
32243;BME280;18731;42.830;24.390;2024-02-26T09:54:16;93970.97;;;17.41;38.26
32243;BME280;18731;42.830;24.390;2024-02-26T09:56:43;93967.84;;;17.10;37.81
32243;BME280;18731;42.830;24.390;2024-02-26T09:59:15;93980.88;;;16.94;38.33
32243;BME280;18731;42.830;24.390;2024-02-26T10:01:42;93975.34;;;16.62;38.93
32243;BME280;18731;42.830;24.390;2024-02-26T10:04:09;93967.06;;;16.26;39.53
32243;BME280;18731;42.830;24.390;2024-02-26T10:06:36;93976.56;;;16.06;40.27
32243;BME280;18731;42.830;24.390;2024-02-26T10:09:03;93965.66;;;15.88;39.90
32243;BME280;18731;42.830;24.390;2024-02-26T10:11:31;93976.75;;;16.38;40.21
32243;BME280;18731;42.830;24.390;2024-02-26T10:13:57;93984.19;;;16.62;38.95
32243;BME280;18731;42.830;24.390;2024-02-26T10:16:23;93939.47;;;16.47;39.73
32243;BME280;18731;42.830;24.390;2024-02-26T10:18:53;93972.41;;;16.88;38.65
32243;BME280;18731;42.830;24.390;2024-02-26T10:21:22;93968.13;;;16.77;37.71
32243;BME280;18731;42.830;24.390;2024-02-26T10:23:49;93951.44;;;16.53;37.87
32243;BME280;18731;42.830;24.390;2024-02-26T10:26:15;93959.09;;;16.48;38.73
32243;BME280;18731;42.830;24.390;2024-02-26T10:28:42;93956.78;;;16.46;36.57
32243;BME280;18731;42.830;24.390;2024-02-26T10:31:09;93949.34;;;16.22;38.31
32243;BME280;18731;42.830;24.390;2024-02-26T10:33:36;93953.56;;;16.19;37.78
32243;BME280;18731;42.830;24.390;2024-02-26T10:36:03;93941.97;;;16.12;38.59
32243;BME280;18731;42.830;24.390;2024-02-26T10:38:30;93958.88;;;16.05;38.64
32243;BME280;18731;42.830;24.390;2024-02-26T10:40:57;93952.34;;;16.06;37.64
32243;BME280;18731;42.830;24.390;2024-02-26T10:43:22;93930.81;;;16.10;38.74
32243;BME280;18731;42.830;24.390;2024-02-26T10:45:48;93950.47;;;16.14;38.30
32243;BME280;18731;42.830;24.390;2024-02-26T10:48:14;93952.41;;;16.17;38.61
32243;BME280;18731;42.830;24.390;2024-02-26T10:50:40;93931.16;;;16.04;38.00
32243;BME280;18731;42.830;24.390;2024-02-26T10:53:13;93952.13;;;16.39;37.44
32243;BME280;18731;42.830;24.390;2024-02-26T10:55:43;93938.31;;;16.45;37.88
32243;BME280;18731;42.830;24.390;2024-02-26T10:58:12;93944.78;;;16.33;37.54
32243;BME280;18731;42.830;24.390;2024-02-26T11:00:39;93923.56;;;16.17;37.53
32243;BME280;18731;42.830;24.390;2024-02-26T11:03:05;93917.75;;;16.12;36.82
32243;BME280;18731;42.830;24.390;2024-02-26T11:05:33;93934.00;;;16.26;37.63
32243;BME280;18731;42.830;24.390;2024-02-26T11:08:00;93948.91;;;16.13;37.40
32243;BME280;18731;42.830;24.390;2024-02-26T11:10:29;93950.09;;;16.15;37.70
32243;BME280;18731;42.830;24.390;2024-02-26T11:12:56;93946.97;;;16.10;37.73
32243;BME280;18731;42.830;24.390;2024-02-26T11:15:23;93911.13;;;15.95;37.84
32243;BME280;18731;42.830;24.390;2024-02-26T11:17:52;93952.34;;;16.06;37.44
32243;BME280;18731;42.830;24.390;2024-02-26T11:20:20;93928.00;;;15.88;37.21
32243;BME280;18731;42.830;24.390;2024-02-26T11:22:45;93940.38;;;16.00;37.21
32243;BME280;18731;42.830;24.390;2024-02-26T11:25:11;93921.47;;;15.89;36.69
32243;BME280;18731;42.830;24.390;2024-02-26T11:27:47;93932.03;;;16.19;37.89
32243;BME280;18731;42.830;24.390;2024-02-26T11:30:14;93930.38;;;16.00;38.76
32243;BME280;18731;42.830;24.390;2024-02-26T11:32:44;93927.63;;;15.93;38.29
32243;BME280;18731;42.830;24.390;2024-02-26T11:35:10;93928.78;;;15.92;38.42
32243;BME280;18731;42.830;24.390;2024-02-26T11:37:40;93940.69;;;15.91;38.63
32243;BME280;18731;42.830;24.390;2024-02-26T11:40:11;93935.03;;;16.07;39.60
32243;BME280;18731;42.830;24.390;2024-02-26T11:42:43;93907.97;;;15.82;39.58
32243;BME280;18731;42.830;24.390;2024-02-26T11:48:13;93912.44;;;15.64;40.41
32243;BME280;18731;42.830;24.390;2024-02-26T11:50:41;93934.53;;;15.87;40.46
32243;BME280;18731;42.830;24.390;2024-02-26T11:53:24;93936.41;;;15.83;40.90
32243;BME280;18731;42.830;24.390;2024-02-26T11:56:13;93941.78;;;15.80;39.99
32243;BME280;18731;42.830;24.390;2024-02-26T11:58:39;93937.88;;;15.73;40.08
32243;BME280;18731;42.830;24.390;2024-02-26T12:01:06;93946.38;;;15.79;40.84
32243;BME280;18731;42.830;24.390;2024-02-26T12:03:31;93940.19;;;15.75;40.99
32243;BME280;18731;42.830;24.390;2024-02-26T12:05:57;93936.03;;;15.85;41.37
32243;BME280;18731;42.830;24.390;2024-02-26T12:08:23;93945.63;;;15.82;40.52
32243;BME280;18731;42.830;24.390;2024-02-26T12:10:50;93942.63;;;15.91;40.39
32243;BME280;18731;42.830;24.390;2024-02-26T12:13:17;93930.28;;;15.86;40.93
32243;BME280;18731;42.830;24.390;2024-02-26T12:15:45;93931.03;;;15.83;40.53
32243;BME280;18731;42.830;24.390;2024-02-26T12:18:18;93923.34;;;15.85;40.59
32243;BME280;18731;42.830;24.390;2024-02-26T12:20:43;93937.25;;;15.94;40.53
32243;BME280;18731;42.830;24.390;2024-02-26T12:23:14;93933.03;;;15.93;40.27
32243;BME280;18731;42.830;24.390;2024-02-26T12:25:40;93932.59;;;15.84;40.56
32243;BME280;18731;42.830;24.390;2024-02-26T12:28:07;93933.81;;;15.97;39.98
32243;BME280;18731;42.830;24.390;2024-02-26T12:30:33;93929.59;;;16.00;40.39
32243;BME280;18731;42.830;24.390;2024-02-26T12:33:00;93915.31;;;15.89;39.71
32243;BME280;18731;42.830;24.390;2024-02-26T12:35:27;93935.06;;;16.14;40.13
32243;BME280;18731;42.830;24.390;2024-02-26T12:37:54;93926.59;;;16.08;39.36
32243;BME280;18731;42.830;24.390;2024-02-26T12:40:20;93901.09;;;15.92;38.97
32243;BME280;18731;42.830;24.390;2024-02-26T12:42:45;93935.09;;;16.18;39.32
32243;BME280;18731;42.830;24.390;2024-02-26T12:45:12;93932.78;;;16.20;38.11
32243;BME280;18731;42.830;24.390;2024-02-26T12:47:38;93937.00;;;16.17;38.06